Time;durP1;ratioP1;P1;durP2;ratioP2;P2;SDS_P1;SDS_P2;PMS_P1;PMS_P2;Temp;Humidity;BMP_temperature;BMP_pressure;BME280_temperature;BME280_humidity;BME280_pressure;Samples;Min_cycle;Max_cycle;Signal;HPM_P1;HPM_P2
2022/06/26 00:00:04;;;;;;;;;;;21.10;99.90;;;;;;5031291;28;20641;-62
2022/06/26 00:02:32;;;;;;;;;;;21.10;99.90;;;;;;5033253;28;20201;-63
2022/06/26 00:05:00;;;;;;;;;;;21.00;99.90;;;;;;5030801;28;20216;-62
2022/06/26 00:07:29;;;;;;;;;;;20.90;99.90;;;;;;5034406;28;20218;-63
2022/06/26 00:09:57;;;;;;;;;;;20.80;99.90;;;;;;5031967;28;20260;-63
2022/06/26 00:12:25;;;;;;;;;;;20.80;99.90;;;;;;5029761;28;20225;-63
2022/06/26 00:14:53;;;;;;;;;;;20.70;99.90;;;;;;5032297;28;20618;-62
2022/06/26 00:17:20;;;;;;;;;;;20.70;99.90;;;;;;5033073;28;20206;-62
2022/06/26 00:19:48;;;;;;;;;;;20.60;99.90;;;;;;5035389;28;20297;-62
2022/06/26 00:22:17;;;;;;;;;;;20.50;99.90;;;;;;5030801;28;20249;-62
2022/06/26 00:24:46;;;;;;;;;;;20.60;99.90;;;;;;5030043;28;20202;-63
2022/06/26 00:27:14;;;;;;;;;;;20.60;99.90;;;;;;5031234;28;20285;-63
2022/06/26 00:29:42;;;;;;;;;;;20.60;99.90;;;;;;5029113;28;20624;-63
2022/06/26 00:32:09;;;;;;;;;;;20.60;99.90;;;;;;5029034;28;20621;-62
2022/06/26 00:34:37;;;;;;;;;;;20.70;99.90;;;;;;5029590;28;20239;-63
2022/06/26 00:37:05;;;;;;;;;;;20.70;99.90;;;;;;5028662;28;20289;-63
2022/06/26 00:39:32;;;;;;;;;;;20.70;99.90;;;;;;5031602;28;20198;-63
2022/06/26 00:42:01;;;;;;;;;;;20.70;99.90;;;;;;5029862;28;21054;-63
2022/06/26 00:44:30;;;;;;;;;;;20.70;99.90;;;;;;5027688;28;20256;-63
2022/06/26 00:46:58;;;;;;;;;;;20.80;99.90;;;;;;5029156;28;20329;-62
2022/06/26 00:49:26;;;;;;;;;;;20.80;99.90;;;;;;5030183;28;20217;-63
2022/06/26 00:51:54;;;;;;;;;;;20.90;99.90;;;;;;5029268;28;21959;-63
2022/06/26 00:54:24;;;;;;;;;;;20.90;99.90;;;;;;5032268;28;20285;-63
2022/06/26 00:56:52;;;;;;;;;;;20.90;99.90;;;;;;5029814;28;20438;-64
2022/06/26 00:59:21;;;;;;;;;;;20.90;99.90;;;;;;5030514;28;20225;-63
2022/06/26 01:01:49;;;;;;;;;;;21.00;99.90;;;;;;5030644;28;20233;-63
2022/06/26 01:04:17;;;;;;;;;;;21.00;99.90;;;;;;5029505;28;20194;-63
2022/06/26 01:06:45;;;;;;;;;;;21.00;99.90;;;;;;5029548;28;20294;-63
2022/06/26 01:09:13;;;;;;;;;;;21.00;99.90;;;;;;5028541;28;20567;-63
2022/06/26 01:11:42;;;;;;;;;;;21.00;99.90;;;;;;5025956;28;20264;-62
2022/06/26 01:14:10;;;;;;;;;;;21.00;99.90;;;;;;5029095;28;20249;-63
2022/06/26 01:16:40;;;;;;;;;;;21.00;99.90;;;;;;5032403;28;20294;-63
2022/06/26 01:19:08;;;;;;;;;;;21.00;99.90;;;;;;5030777;28;20278;-63
2022/06/26 01:21:36;;;;;;;;;;;21.10;99.90;;;;;;5030754;28;20278;-63
2022/06/26 01:24:06;;;;;;;;;;;21.10;99.90;;;;;;5029585;28;20619;-63
2022/06/26 01:26:34;;;;;;;;;;;21.20;99.90;;;;;;5029974;28;20207;-62
2022/06/26 01:29:02;;;;;;;;;;;21.30;99.90;;;;;;5030115;28;20273;-63
2022/06/26 01:31:30;;;;;;;;;;;21.20;99.90;;;;;;5033860;28;20249;-63
2022/06/26 01:33:58;;;;;;;;;;;21.20;99.90;;;;;;5029342;28;20750;-62
2022/06/26 01:36:25;;;;;;;;;;;21.10;99.90;;;;;;5028652;28;20233;-62
2022/06/26 01:38:53;;;;;;;;;;;21.00;99.90;;;;;;5026904;28;20213;-62
2022/06/26 01:41:22;;;;;;;;;;;20.90;99.90;;;;;;5030796;28;20194;-62
2022/06/26 01:43:50;;;;;;;;;;;20.80;99.90;;;;;;5032100;28;20230;-62
2022/06/26 01:46:18;;;;;;;;;;;20.80;99.90;;;;;;5029097;28;20635;-63
2022/06/26 01:48:45;;;;;;;;;;;20.90;99.90;;;;;;5030760;28;20606;-62
2022/06/26 01:51:13;;;;;;;;;;;20.90;99.90;;;;;;5031562;28;20206;-63
2022/06/26 01:53:41;;;;;;;;;;;21.00;99.90;;;;;;5026953;28;20233;-62
2022/06/26 01:56:09;;;;;;;;;;;21.10;99.90;;;;;;5031878;28;20198;-62
2022/06/26 01:58:38;;;;;;;;;;;21.10;99.90;;;;;;5029605;28;20244;-63
2022/06/26 02:01:07;;;;;;;;;;;21.20;99.90;;;;;;5029345;28;20230;-62
2022/06/26 02:03:35;;;;;;;;;;;21.30;99.90;;;;;;5029560;28;20199;-63
2022/06/26 02:06:03;;;;;;;;;;;21.20;99.90;;;;;;5031370;28;20286;-63
2022/06/26 02:08:31;;;;;;;;;;;21.10;99.90;;;;;;5030889;28;20227;-62
2022/06/26 02:13:54;;;;;;;;;;;20.90;99.90;;;;;;4997925;28;20739;-62
2022/06/26 02:16:23;;;;;;;;;;;20.80;99.90;;;;;;5032853;28;20261;-63
2022/06/26 02:18:52;;;;;;;;;;;20.60;99.90;;;;;;5035093;28;20198;-62
2022/06/26 02:21:20;;;;;;;;;;;20.50;99.90;;;;;;5033044;28;20281;-63
2022/06/26 02:23:49;;;;;;;;;;;20.50;99.90;;;;;;5032732;28;20209;-62
2022/06/26 02:26:17;;;;;;;;;;;20.30;99.90;;;;;;5033095;28;20285;-62
2022/06/26 02:28:46;;;;;;;;;;;20.20;99.90;;;;;;5035394;28;20614;-64
2022/06/26 02:31:15;;;;;;;;;;;20.20;99.90;;;;;;5032965;28;20155;-64
2022/06/26 02:33:43;;;;;;;;;;;20.20;99.90;;;;;;5034055;28;20217;-64
2022/06/26 02:36:11;;;;;;;;;;;20.20;99.90;;;;;;5032011;28;20245;-64
2022/06/26 02:38:39;;;;;;;;;;;20.20;99.90;;;;;;5033512;28;20711;-64
2022/06/26 02:41:07;;;;;;;;;;;20.30;99.90;;;;;;5033421;28;20273;-64
2022/06/26 02:43:34;;;;;;;;;;;20.30;99.90;;;;;;5033731;28;20301;-63
2022/06/26 02:46:02;;;;;;;;;;;20.20;99.90;;;;;;5041343;28;20217;-64
2022/06/26 02:48:31;;;;;;;;;;;20.20;99.90;;;;;;5039150;28;20240;-63
2022/06/26 02:50:59;;;;;;;;;;;20.20;99.90;;;;;;5034600;28;20237;-65
2022/06/26 02:53:27;;;;;;;;;;;20.30;99.90;;;;;;5032624;28;20581;-64
2022/06/26 02:55:55;;;;;;;;;;;20.30;99.90;;;;;;5034269;28;20638;-63
2022/06/26 02:58:24;;;;;;;;;;;20.30;99.90;;;;;;5038846;28;20202;-63
2022/06/26 03:00:52;;;;;;;;;;;20.20;99.90;;;;;;5053428;28;20273;-63
2022/06/26 03:03:20;;;;;;;;;;;20.10;99.90;;;;;;5052592;28;20790;-64
2022/06/26 03:05:49;;;;;;;;;;;20.00;99.90;;;;;;5053484;28;20671;-63
2022/06/26 03:08:16;;;;;;;;;;;20.10;99.90;;;;;;5046889;28;20206;-63
2022/06/26 03:10:44;;;;;;;;;;;20.00;99.90;;;;;;5034935;28;20256;-63
2022/06/26 03:13:12;;;;;;;;;;;20.00;99.90;;;;;;5030935;28;20199;-63
2022/06/26 03:15:41;;;;;;;;;;;20.00;99.90;;;;;;5036427;28;20241;-63
2022/06/26 03:18:09;;;;;;;;;;;20.10;99.90;;;;;;5034834;28;20214;-63
2022/06/26 03:20:37;;;;;;;;;;;20.10;99.90;;;;;;5035449;28;20191;-63
2022/06/26 03:23:06;;;;;;;;;;;20.10;99.90;;;;;;5032308;28;20741;-63
2022/06/26 03:25:33;;;;;;;;;;;20.10;99.90;;;;;;5034272;28;20207;-64
2022/06/26 03:28:01;;;;;;;;;;;20.20;99.90;;;;;;5039942;28;20191;-63
2022/06/26 03:30:29;;;;;;;;;;;20.20;99.90;;;;;;5030863;28;20286;-63
2022/06/26 03:32:57;;;;;;;;;;;20.10;99.90;;;;;;5027806;28;20648;-64
2022/06/26 03:35:24;;;;;;;;;;;20.10;99.90;;;;;;5038514;28;20226;-64
2022/06/26 03:37:52;;;;;;;;;;;20.10;99.90;;;;;;5034537;28;21006;-64
2022/06/26 03:40:21;;;;;;;;;;;20.20;99.90;;;;;;5037439;28;20248;-64
2022/06/26 03:42:49;;;;;;;;;;;20.10;99.90;;;;;;5032596;28;20313;-63
2022/06/26 03:45:17;;;;;;;;;;;20.10;99.90;;;;;;5030500;28;20194;-63
2022/06/26 03:47:44;;;;;;;;;;;20.10;99.90;;;;;;5031384;28;20230;-63
2022/06/26 03:50:12;;;;;;;;;;;20.10;99.90;;;;;;5031423;28;20675;-64
2022/06/26 03:52:46;;;;;;;;;;;20.00;99.90;;;;;;5033452;28;20587;-63
2022/06/26 03:55:14;;;;;;;;;;;20.00;99.90;;;;;;5032407;28;20226;-64
2022/06/26 03:57:43;;;;;;;;;;;19.90;99.90;;;;;;5030168;28;20288;-63
2022/06/26 04:00:11;;;;;;;;;;;19.90;99.90;;;;;;5036407;28;20213;-63
2022/06/26 04:02:40;;;;;;;;;;;20.00;99.90;;;;;;5029935;28;20226;-63
2022/06/26 04:05:08;;;;;;;;;;;20.00;99.90;;;;;;5030381;28;20202;-63
2022/06/26 04:07:36;;;;;;;;;;;20.00;99.90;;;;;;5027702;28;20255;-63
2022/06/26 04:10:05;;;;;;;;;;;20.00;99.90;;;;;;5028164;28;20194;-63
2022/06/26 04:12:33;;;;;;;;;;;20.10;99.90;;;;;;5030884;28;20226;-62
2022/06/26 04:15:02;;;;;;;;;;;20.20;99.90;;;;;;5036141;28;20191;-63
2022/06/26 04:17:29;;;;;;;;;;;20.10;99.90;;;;;;5033449;28;20278;-63
2022/06/26 04:19:57;;;;;;;;;;;20.10;99.90;;;;;;5032334;28;20640;-62
2022/06/26 04:22:25;;;;;;;;;;;20.10;99.90;;;;;;5029257;28;20203;-63
2022/06/26 04:24:52;;;;;;;;;;;20.20;99.90;;;;;;5033012;28;20218;-62
2022/06/26 04:27:20;;;;;;;;;;;20.20;99.90;;;;;;5032534;28;20281;-62
2022/06/26 04:29:48;;;;;;;;;;;20.40;99.90;;;;;;5032144;28;20249;-62
2022/06/26 04:32:17;;;;;;;;;;;20.40;99.90;;;;;;5028679;28;20306;-62
2022/06/26 04:34:45;;;;;;;;;;;20.30;99.90;;;;;;5032754;28;20198;-62
2022/06/26 04:37:12;;;;;;;;;;;20.20;99.90;;;;;;5028140;28;20203;-62
2022/06/26 04:39:40;;;;;;;;;;;20.30;99.90;;;;;;5032760;28;20763;-62
2022/06/26 04:42:08;;;;;;;;;;;20.30;99.90;;;;;;5031367;28;20194;-62
2022/06/26 04:44:35;;;;;;;;;;;20.20;99.90;;;;;;5030092;28;20316;-63
2022/06/26 04:47:03;;;;;;;;;;;20.30;99.90;;;;;;5012501;28;20218;-62
2022/06/26 04:49:32;;;;;;;;;;;20.40;99.90;;;;;;5037314;28;20811;-62
2022/06/26 04:52:00;;;;;;;;;;;20.40;99.90;;;;;;5028694;28;20309;-61
2022/06/26 04:54:28;;;;;;;;;;;20.40;99.90;;;;;;5027684;28;20644;-62
2022/06/26 04:56:55;;;;;;;;;;;20.40;99.90;;;;;;5039880;28;20655;-61
2022/06/26 04:59:23;;;;;;;;;;;20.40;99.90;;;;;;5034632;28;20273;-62
2022/06/26 05:01:51;;;;;;;;;;;20.40;99.90;;;;;;5027497;28;20195;-62
2022/06/26 05:04:19;;;;;;;;;;;20.50;99.90;;;;;;5029596;28;20205;-62
2022/06/26 05:06:48;;;;;;;;;;;20.40;99.90;;;;;;5053881;22;20642;-64
2022/06/26 05:09:16;;;;;;;;;;;20.60;99.90;;;;;;5028855;28;20199;-64
2022/06/26 05:11:44;;;;;;;;;;;20.70;99.90;;;;;;5027801;28;20249;-63
2022/06/26 05:14:12;;;;;;;;;;;20.60;99.90;;;;;;5023282;28;20241;-64
2022/06/26 05:16:39;;;;;;;;;;;20.70;99.90;;;;;;5018518;28;20227;-64
2022/06/26 05:19:08;;;;;;;;;;;20.80;99.90;;;;;;5001676;28;20257;-64
2022/06/26 05:21:35;;;;;;;;;;;20.80;99.90;;;;;;4999700;28;20272;-64
2022/06/26 05:24:05;;;;;;;;;;;20.90;99.90;;;;;;4996571;28;20195;-64
2022/06/26 05:26:33;;;;;;;;;;;20.90;99.90;;;;;;5002087;28;20228;-63
2022/06/26 05:29:01;;;;;;;;;;;21.10;99.90;;;;;;5001022;28;20199;-63
2022/06/26 05:31:29;;;;;;;;;;;21.20;99.90;;;;;;4998964;28;20290;-65
2022/06/26 05:33:56;;;;;;;;;;;21.20;99.90;;;;;;5010857;28;20207;-64
2022/06/26 05:36:29;;;;;;;;;;;21.10;99.90;;;;;;5009290;28;20207;-64
2022/06/26 05:38:57;;;;;;;;;;;21.00;99.90;;;;;;4995627;28;21024;-64
2022/06/26 05:41:26;;;;;;;;;;;20.90;99.90;;;;;;4991376;28;20261;-63
2022/06/26 05:43:54;;;;;;;;;;;20.80;99.90;;;;;;4992256;28;20211;-64
2022/06/26 05:46:21;;;;;;;;;;;20.90;99.90;;;;;;4997094;28;20285;-64
2022/06/26 05:48:49;;;;;;;;;;;21.00;99.90;;;;;;4996805;28;20213;-64
2022/06/26 05:51:17;;;;;;;;;;;21.00;99.90;;;;;;4998668;28;20282;-64
2022/06/26 05:53:45;;;;;;;;;;;20.80;99.90;;;;;;4997029;28;20306;-64
2022/06/26 05:56:13;;;;;;;;;;;20.70;99.90;;;;;;4997813;28;20207;-64
2022/06/26 05:58:42;;;;;;;;;;;20.50;99.90;;;;;;4997314;28;20219;-63
2022/06/26 06:01:09;;;;;;;;;;;20.50;99.90;;;;;;4991675;28;20198;-63
2022/06/26 06:03:37;;;;;;;;;;;20.50;99.90;;;;;;4996505;28;21544;-64
2022/06/26 06:06:05;;;;;;;;;;;20.60;99.90;;;;;;4995448;28;20069;-64
2022/06/26 06:08:33;;;;;;;;;;;20.70;99.90;;;;;;4997398;28;20230;-66
2022/06/26 06:11:00;;;;;;;;;;;20.90;99.90;;;;;;4995198;28;20195;-64
2022/06/26 06:13:28;;;;;;;;;;;21.00;99.90;;;;;;4996749;28;20207;-64
2022/06/26 06:15:57;;;;;;;;;;;21.10;99.90;;;;;;4997158;28;21105;-64
2022/06/26 06:18:25;;;;;;;;;;;21.00;99.90;;;;;;4997196;28;20257;-67
2022/06/26 06:20:53;;;;;;;;;;;21.00;99.90;;;;;;4993683;28;20208;-65
2022/06/26 06:23:38;;;;;;;;;;;21.10;99.90;;;;;;4995125;28;20285;-65
2022/06/26 06:26:06;;;;;;;;;;;21.30;99.90;;;;;;4995649;28;20203;-64
2022/06/26 06:28:33;;;;;;;;;;;21.30;99.90;;;;;;4995599;28;20207;-64
2022/06/26 06:31:02;;;;;;;;;;;21.40;99.90;;;;;;4993936;28;20745;-64
2022/06/26 06:33:30;;;;;;;;;;;21.50;99.90;;;;;;4995788;28;20199;-65
2022/06/26 06:35:58;;;;;;;;;;;21.50;99.90;;;;;;4995231;28;20230;-63
2022/06/26 06:38:26;;;;;;;;;;;21.70;99.90;;;;;;4995182;28;20956;-64
2022/06/26 06:40:54;;;;;;;;;;;21.90;99.90;;;;;;4992505;28;20294;-66
2022/06/26 06:43:21;;;;;;;;;;;22.10;99.90;;;;;;4995668;28;20282;-63
2022/06/26 06:45:49;;;;;;;;;;;22.40;99.90;;;;;;4995569;28;20369;-65
2022/06/26 06:48:20;;;;;;;;;;;22.50;99.90;;;;;;4993736;28;20310;-64
2022/06/26 06:50:47;;;;;;;;;;;22.60;99.90;;;;;;4975787;28;20211;-65
2022/06/26 06:53:15;;;;;;;;;;;22.60;99.90;;;;;;4994765;28;20210;-63
2022/06/26 06:55:43;;;;;;;;;;;22.70;99.90;;;;;;4997062;28;20298;-64
2022/06/26 06:58:11;;;;;;;;;;;22.60;99.90;;;;;;4994750;28;20210;-64
2022/06/26 07:00:39;;;;;;;;;;;22.50;99.90;;;;;;4991179;28;20234;-65
2022/06/26 07:03:07;;;;;;;;;;;22.60;99.90;;;;;;4996602;28;20282;-67
2022/06/26 07:05:36;;;;;;;;;;;22.70;99.90;;;;;;4994241;28;20207;-66
2022/06/26 07:08:04;;;;;;;;;;;22.90;99.90;;;;;;4992468;28;20744;-65
2022/06/26 07:10:31;;;;;;;;;;;23.00;99.90;;;;;;4992939;28;21306;-65
2022/06/26 07:13:00;;;;;;;;;;;23.10;99.90;;;;;;4997203;28;20283;-67
2022/06/26 07:15:28;;;;;;;;;;;23.20;99.90;;;;;;4995175;28;20740;-65
2022/06/26 07:17:55;;;;;;;;;;;23.40;99.90;;;;;;4991591;28;21035;-66
2022/06/26 07:20:23;;;;;;;;;;;23.60;99.90;;;;;;4993599;28;20224;-65
2022/06/26 07:22:52;;;;;;;;;;;23.60;99.90;;;;;;4994816;28;20299;-65
2022/06/26 07:25:22;;;;;;;;;;;23.60;99.90;;;;;;4995093;28;20289;-65
2022/06/26 07:27:50;;;;;;;;;;;23.70;99.90;;;;;;4995850;28;21239;-64
2022/06/26 07:30:19;;;;;;;;;;;23.80;99.90;;;;;;4993974;28;20229;-65
2022/06/26 07:32:47;;;;;;;;;;;23.90;99.90;;;;;;4996008;28;20204;-65
2022/06/26 07:35:15;;;;;;;;;;;24.00;99.90;;;;;;4994019;28;20289;-66
2022/06/26 07:37:42;;;;;;;;;;;24.10;99.90;;;;;;4995017;28;20906;-66
2022/06/26 07:40:12;;;;;;;;;;;24.20;99.90;;;;;;4992719;28;20210;-65
2022/06/26 07:42:40;;;;;;;;;;;24.20;99.90;;;;;;4994373;28;21250;-65
2022/06/26 07:45:08;;;;;;;;;;;24.30;99.90;;;;;;4996098;28;20270;-66
2022/06/26 07:47:36;;;;;;;;;;;24.30;99.90;;;;;;4994200;28;20202;-64
2022/06/26 07:50:05;;;;;;;;;;;24.40;99.90;;;;;;4996293;28;20908;-68
2022/06/26 07:52:33;;;;;;;;;;;24.50;99.90;;;;;;4997454;28;20275;-66
2022/06/26 07:55:01;;;;;;;;;;;24.60;99.90;;;;;;4997129;28;20199;-65
2022/06/26 07:57:32;;;;;;;;;;;24.80;99.90;;;;;;4996513;28;20581;-65
2022/06/26 08:00:00;;;;;;;;;;;25.00;99.90;;;;;;4997409;28;20195;-65
2022/06/26 08:02:29;;;;;;;;;;;25.20;99.90;;;;;;4993598;28;20207;-65
2022/06/26 08:04:57;;;;;;;;;;;25.40;99.90;;;;;;4995746;28;20199;-66
2022/06/26 08:07:25;;;;;;;;;;;25.40;99.90;;;;;;4996693;28;20222;-66
2022/06/26 08:09:53;;;;;;;;;;;25.50;99.90;;;;;;4980572;28;20373;-66
2022/06/26 08:12:20;;;;;;;;;;;25.50;99.90;;;;;;4992738;28;20191;-66
2022/06/26 08:14:50;;;;;;;;;;;25.60;99.90;;;;;;4997097;28;20763;-66
2022/06/26 08:17:18;;;;;;;;;;;25.50;99.90;;;;;;4994810;28;20206;-65
2022/06/26 08:19:47;;;;;;;;;;;25.60;99.90;;;;;;4996667;28;20286;-65
2022/06/26 08:22:15;;;;;;;;;;;25.80;99.90;;;;;;4990851;28;20215;-65
2022/06/26 08:24:43;;;;;;;;;;;25.80;99.90;;;;;;4992680;28;20214;-65
2022/06/26 08:27:11;;;;;;;;;;;25.90;99.90;;;;;;4995648;28;20704;-65
2022/06/26 08:29:39;;;;;;;;;;;26.10;99.90;;;;;;5013776;28;20254;-66
2022/06/26 08:32:08;;;;;;;;;;;26.10;99.90;;;;;;5011107;28;20227;-65
2022/06/26 08:34:36;;;;;;;;;;;26.00;99.90;;;;;;5010334;28;20238;-67
2022/06/26 08:37:05;;;;;;;;;;;26.10;99.90;;;;;;5008314;28;20203;-66
2022/06/26 08:39:35;;;;;;;;;;;26.40;99.90;;;;;;5009474;28;20660;-66
2022/06/26 08:42:04;;;;;;;;;;;26.40;99.90;;;;;;5009636;28;20195;-66
2022/06/26 08:44:32;;;;;;;;;;;26.60;99.90;;;;;;5010059;28;20199;-67
2022/06/26 08:47:02;;;;;;;;;;;26.60;99.90;;;;;;5011988;28;20227;-66
2022/06/26 08:49:32;;;;;;;;;;;26.50;99.90;;;;;;5012238;28;20621;-66
2022/06/26 08:52:00;;;;;;;;;;;26.50;99.90;;;;;;5011350;28;20243;-67
2022/06/26 08:54:28;;;;;;;;;;;26.60;99.90;;;;;;5012101;28;20227;-66
2022/06/26 08:56:56;;;;;;;;;;;26.70;99.90;;;;;;5012127;28;20213;-66
2022/06/26 08:59:24;;;;;;;;;;;26.90;99.90;;;;;;5011909;28;20230;-66
2022/06/26 09:01:51;;;;;;;;;;;27.20;99.90;;;;;;5011848;28;20211;-66
2022/06/26 09:04:19;;;;;;;;;;;27.40;99.90;;;;;;5011606;28;20203;-66
2022/06/26 09:06:48;;;;;;;;;;;27.60;99.90;;;;;;5011889;28;20271;-66
2022/06/26 09:09:17;;;;;;;;;;;28.00;99.90;;;;;;5012049;28;20250;-66
2022/06/26 09:11:45;;;;;;;;;;;28.00;99.90;;;;;;5011798;28;20286;-67
2022/06/26 09:14:13;;;;;;;;;;;28.30;99.90;;;;;;5012797;28;20354;-66
2022/06/26 09:16:42;;;;;;;;;;;28.30;99.90;;;;;;5011091;28;20207;-66
2022/06/26 09:19:12;;;;;;;;;;;28.50;99.90;;;;;;5011852;28;20232;-66
2022/06/26 09:21:40;;;;;;;;;;;28.80;99.90;;;;;;5011517;28;20207;-67
2022/06/26 09:24:11;;;;;;;;;;;28.90;99.90;;;;;;5011148;28;20203;-66
2022/06/26 09:26:39;;;;;;;;;;;29.00;99.90;;;;;;5011402;28;20290;-67
2022/06/26 09:29:10;;;;;;;;;;;29.00;99.90;;;;;;5011647;28;20241;-67
2022/06/26 09:31:39;;;;;;;;;;;29.40;99.90;;;;;;5011773;28;20890;-67
2022/06/26 09:34:07;;;;;;;;;;;29.50;99.80;;;;;;5011040;28;20252;-67
2022/06/26 09:36:35;;;;;;;;;;;29.60;99.10;;;;;;5011443;28;20227;-67
2022/06/26 09:39:06;;;;;;;;;;;29.70;99.70;;;;;;5011408;28;20764;-67
2022/06/26 09:41:37;;;;;;;;;;;29.70;99.40;;;;;;5011693;28;20195;-66
2022/06/26 09:44:17;;;;;;;;;;;29.90;98.80;;;;;;5010566;28;20202;-66
2022/06/26 09:46:45;;;;;;;;;;;29.80;99.30;;;;;;5011294;28;20249;-67
2022/06/26 09:49:13;;;;;;;;;;;29.70;99.40;;;;;;5011447;28;20239;-66
2022/06/26 09:51:41;;;;;;;;;;;29.70;99.90;;;;;;5011346;28;20203;-68
2022/06/26 09:54:09;;;;;;;;;;;29.90;99.00;;;;;;5010856;28;20641;-67
2022/06/26 09:56:39;;;;;;;;;;;30.10;98.90;;;;;;5011474;28;20255;-67
2022/06/26 09:59:08;;;;;;;;;;;30.30;99.10;;;;;;5011343;28;20234;-67
2022/06/26 10:07:11;;;;;;;;;;;30.20;98.80;;;;;;5011034;28;20222;-67
2022/06/26 10:09:40;;;;;;;;;;;30.20;98.50;;;;;;5010903;28;20259;-67
2022/06/26 10:12:12;;;;;;;;;;;30.20;98.00;;;;;;5011117;28;20250;-67
2022/06/26 10:14:42;;;;;;;;;;;30.10;97.90;;;;;;5010806;28;20246;-67
2022/06/26 10:17:17;;;;;;;;;;;30.50;98.80;;;;;;5010819;28;20200;-67
2022/06/26 10:19:46;;;;;;;;;;;30.80;98.10;;;;;;5005113;28;20225;-66
2022/06/26 10:22:14;;;;;;;;;;;30.90;97.00;;;;;;5004517;28;20211;-66
2022/06/26 10:24:52;;;;;;;;;;;30.80;96.40;;;;;;5004774;28;20199;-66
2022/06/26 10:27:25;;;;;;;;;;;30.40;96.20;;;;;;5007993;28;20211;-66
2022/06/26 10:30:03;;;;;;;;;;;30.20;97.30;;;;;;5014743;28;20616;-67
2022/06/26 10:32:31;;;;;;;;;;;30.10;96.80;;;;;;5014164;28;20615;-67
2022/06/26 10:34:59;;;;;;;;;;;30.20;96.90;;;;;;5014704;28;20227;-68
2022/06/26 10:37:27;;;;;;;;;;;30.60;97.90;;;;;;5014387;28;20211;-67
2022/06/26 10:39:55;;;;;;;;;;;31.00;96.60;;;;;;5014843;28;20234;-67
2022/06/26 10:45:10;;;;;;;;;;;31.10;97.50;;;;;;5001162;28;20451;-66
2022/06/26 10:47:46;;;;;;;;;;;31.30;95.50;;;;;;5014272;28;20671;-67
2022/06/26 10:50:28;;;;;;;;;;;31.20;95.50;;;;;;5008489;28;20673;-66
2022/06/26 10:53:11;;;;;;;;;;;31.70;95.60;;;;;;5013664;28;20206;-66
2022/06/26 10:55:39;;;;;;;;;;;31.80;94.90;;;;;;5014277;28;20241;-66
2022/06/26 10:58:07;;;;;;;;;;;31.80;95.10;;;;;;5014127;28;20207;-66
2022/06/26 11:00:36;;;;;;;;;;;31.60;94.00;;;;;;5014126;28;20286;-66
2022/06/26 11:03:12;;;;;;;;;;;31.40;94.10;;;;;;5013561;28;20672;-66
2022/06/26 11:05:49;;;;;;;;;;;31.60;93.70;;;;;;5014366;28;20207;-66
2022/06/26 11:08:22;;;;;;;;;;;31.60;94.20;;;;;;5014955;28;20281;-66
2022/06/26 11:10:50;;;;;;;;;;;31.60;93.40;;;;;;5013865;28;20231;-67
2022/06/26 11:13:18;;;;;;;;;;;32.10;94.10;;;;;;5013251;28;20203;-67
2022/06/26 11:15:47;;;;;;;;;;;32.30;92.80;;;;;;5005855;28;20354;-68
2022/06/26 11:18:15;;;;;;;;;;;32.40;92.00;;;;;;4994724;28;20273;-67
2022/06/26 11:20:50;;;;;;;;;;;32.40;92.80;;;;;;4993359;28;20334;-67
2022/06/26 11:23:19;;;;;;;;;;;32.80;92.60;;;;;;4997160;28;20213;-66
2022/06/26 11:25:48;;;;;;;;;;;33.30;91.40;;;;;;4995216;28;20301;-67
2022/06/26 11:28:16;;;;;;;;;;;32.90;90.70;;;;;;4993965;28;20608;-68
2022/06/26 11:30:45;;;;;;;;;;;32.80;90.80;;;;;;4994613;28;20183;-67
2022/06/26 11:33:22;;;;;;;;;;;33.20;91.80;;;;;;4993278;28;20198;-68
2022/06/26 11:35:49;;;;;;;;;;;33.60;90.50;;;;;;4994917;28;20184;-67
2022/06/26 11:38:18;;;;;;;;;;;33.50;91.00;;;;;;4992827;28;20699;-67
2022/06/26 11:40:46;;;;;;;;;;;33.60;90.00;;;;;;4991435;28;20648;-66
2022/06/26 11:43:15;;;;;;;;;;;33.50;89.50;;;;;;4993293;28;20853;-66
2022/06/26 11:45:43;;;;;;;;;;;32.30;88.80;;;;;;4994905;28;20202;-68
2022/06/26 11:48:13;;;;;;;;;;;31.80;90.60;;;;;;4993666;28;20277;-67
2022/06/26 11:50:42;;;;;;;;;;;31.70;91.20;;;;;;4990586;28;20274;-66
2022/06/26 11:53:10;;;;;;;;;;;31.70;90.40;;;;;;4995293;28;20241;-66
2022/06/26 11:55:45;;;;;;;;;;;31.60;90.10;;;;;;4987877;28;20188;-66
2022/06/26 11:58:14;;;;;;;;;;;31.60;89.60;;;;;;4994909;28;20287;-66
2022/06/26 12:00:42;;;;;;;;;;;31.70;89.30;;;;;;4993092;28;20938;-68
2022/06/26 12:03:11;;;;;;;;;;;31.60;90.00;;;;;;4995061;28;20317;-67
2022/06/26 12:05:40;;;;;;;;;;;31.60;90.00;;;;;;4991756;28;20254;-67
2022/06/26 12:08:16;;;;;;;;;;;31.70;90.80;;;;;;4992415;28;20283;-66
2022/06/26 12:10:47;;;;;;;;;;;31.60;88.80;;;;;;4990053;28;20294;-66
2022/06/26 12:13:21;;;;;;;;;;;31.10;90.00;;;;;;4991635;28;20229;-66
2022/06/26 12:15:49;;;;;;;;;;;31.00;90.50;;;;;;4995972;28;20253;-66
2022/06/26 12:18:16;;;;;;;;;;;30.80;91.30;;;;;;4988265;28;20214;-66
2022/06/26 12:20:44;;;;;;;;;;;30.40;91.60;;;;;;4993757;28;20302;-66
2022/06/26 12:23:12;;;;;;;;;;;30.30;91.00;;;;;;4991205;28;20278;-67
2022/06/26 12:25:44;;;;;;;;;;;30.10;91.50;;;;;;4989838;28;20775;-66
2022/06/26 12:28:21;;;;;;;;;;;30.10;91.80;;;;;;4989826;28;20203;-67
2022/06/26 12:30:48;;;;;;;;;;;30.20;91.20;;;;;;4993779;28;20377;-66
2022/06/26 12:33:16;;;;;;;;;;;30.10;91.30;;;;;;4993889;28;20215;-66
2022/06/26 12:35:44;;;;;;;;;;;30.10;91.50;;;;;;4995038;28;20285;-68
2022/06/26 12:38:12;;;;;;;;;;;30.00;92.30;;;;;;4989620;28;20206;-66
2022/06/26 12:40:41;;;;;;;;;;;29.90;91.70;;;;;;4993634;28;20266;-66
2022/06/26 12:43:09;;;;;;;;;;;29.90;92.60;;;;;;4992515;28;20265;-66
2022/06/26 12:45:36;;;;;;;;;;;29.90;92.90;;;;;;4993955;28;20385;-65
2022/06/26 12:48:04;;;;;;;;;;;29.60;93.20;;;;;;4990004;28;20203;-66
2022/06/26 12:50:32;;;;;;;;;;;29.40;93.60;;;;;;4989693;28;20231;-67
2022/06/26 12:53:00;;;;;;;;;;;29.30;94.10;;;;;;5007873;28;20233;-66
2022/06/26 12:55:28;;;;;;;;;;;29.20;94.60;;;;;;5011215;28;20195;-67
2022/06/26 12:57:57;;;;;;;;;;;29.40;95.00;;;;;;5012126;28;20233;-67
2022/06/26 13:00:25;;;;;;;;;;;29.60;94.50;;;;;;5011955;28;20237;-66
2022/06/26 13:02:52;;;;;;;;;;;30.10;95.00;;;;;;5011313;28;20213;-67
2022/06/26 13:05:20;;;;;;;;;;;31.00;94.50;;;;;;5011746;28;20269;-67
2022/06/26 13:07:48;;;;;;;;;;;31.70;94.00;;;;;;5011581;28;20657;-67
2022/06/26 13:10:16;;;;;;;;;;;31.60;94.00;;;;;;5012420;28;20257;-67
2022/06/26 13:12:43;;;;;;;;;;;31.80;93.30;;;;;;5011261;28;20204;-67
2022/06/26 13:15:14;;;;;;;;;;;31.80;93.10;;;;;;4991069;28;20199;-67
2022/06/26 13:17:41;;;;;;;;;;;31.70;93.20;;;;;;5009289;28;20230;-67
2022/06/26 13:20:09;;;;;;;;;;;31.40;93.30;;;;;;5011684;28;20191;-67
2022/06/26 13:22:37;;;;;;;;;;;31.20;93.40;;;;;;5011211;28;20719;-67
2022/06/26 13:25:05;;;;;;;;;;;30.80;93.70;;;;;;5011542;28;20680;-67
2022/06/26 13:27:33;;;;;;;;;;;30.70;93.90;;;;;;5011577;28;20234;-66
2022/06/26 13:30:01;;;;;;;;;;;30.80;94.20;;;;;;5011636;28;20551;-66
2022/06/26 13:32:31;;;;;;;;;;;30.70;94.60;;;;;;5011154;28;20226;-67
2022/06/26 13:34:58;;;;;;;;;;;30.70;95.00;;;;;;5011643;28;20668;-66
2022/06/26 13:37:26;;;;;;;;;;;30.40;95.70;;;;;;5011142;28;20634;-66
2022/06/26 13:39:54;;;;;;;;;;;30.10;95.20;;;;;;5011549;28;20264;-66
2022/06/26 13:42:22;;;;;;;;;;;29.90;95.20;;;;;;5010965;28;20307;-66
2022/06/26 13:44:49;;;;;;;;;;;29.50;95.20;;;;;;5011349;28;20203;-66
2022/06/26 13:47:17;;;;;;;;;;;29.30;95.80;;;;;;5011025;28;20678;-66
2022/06/26 13:49:47;;;;;;;;;;;29.20;95.80;;;;;;5011409;28;20214;-66
2022/06/26 13:52:15;;;;;;;;;;;29.00;95.60;;;;;;5010897;28;20258;-66
2022/06/26 13:54:44;;;;;;;;;;;29.00;96.20;;;;;;5011588;28;20208;-66
2022/06/26 13:57:11;;;;;;;;;;;28.80;96.30;;;;;;5011152;28;20231;-66
2022/06/26 13:59:39;;;;;;;;;;;28.90;96.30;;;;;;5011300;28;20230;-66
2022/06/26 14:02:07;;;;;;;;;;;28.40;97.00;;;;;;5011895;28;20242;-66
2022/06/26 14:04:35;;;;;;;;;;;28.10;97.30;;;;;;5015143;28;20213;-66
2022/06/26 14:07:04;;;;;;;;;;;27.90;97.30;;;;;;5014932;28;20207;-66
2022/06/26 14:09:33;;;;;;;;;;;27.70;97.80;;;;;;5015161;28;20195;-66
2022/06/26 14:12:04;;;;;;;;;;;27.60;98.20;;;;;;5014552;28;20211;-66
2022/06/26 14:14:32;;;;;;;;;;;27.30;98.70;;;;;;5015265;28;20211;-66
2022/06/26 14:17:00;;;;;;;;;;;27.20;98.90;;;;;;5014340;28;20223;-66
2022/06/26 14:19:27;;;;;;;;;;;27.30;99.20;;;;;;5015068;28;20203;-66
2022/06/26 14:27:24;;;;;;;;;;;27.20;99.10;;;;;;5014296;28;20249;-66
2022/06/26 14:29:52;;;;;;;;;;;27.20;99.50;;;;;;5014985;28;20639;-66
2022/06/26 14:32:19;;;;;;;;;;;27.10;99.80;;;;;;5014057;28;20211;-66
2022/06/26 14:34:47;;;;;;;;;;;27.20;99.80;;;;;;5014849;28;20199;-66
2022/06/26 14:37:15;;;;;;;;;;;27.00;99.90;;;;;;5014387;28;20200;-66
2022/06/26 14:39:44;;;;;;;;;;;26.90;99.90;;;;;;5014526;28;20695;-66